createdAt,value
2018-03-18T00:04:39.043Z,101106.31
2018-03-18T00:07:04.879Z,101113.73
2018-03-18T00:09:30.690Z,101112.00
2018-03-18T00:11:56.534Z,101117.69
2018-03-18T00:14:22.355Z,101129.00
2018-03-18T00:16:48.175Z,101113.87
2018-03-18T00:19:13.992Z,101130.61
2018-03-18T00:21:39.809Z,101124.91
2018-03-18T00:24:05.663Z,101128.59
2018-03-18T00:26:31.478Z,101123.77
2018-03-18T00:28:57.352Z,101128.83
2018-03-18T00:31:23.171Z,101119.70
2018-03-18T00:33:49.001Z,101130.46
2018-03-18T00:36:14.823Z,101130.78
2018-03-18T00:38:40.643Z,101136.55
2018-03-18T00:41:06.498Z,101128.66
2018-03-18T00:43:32.318Z,101133.89
2018-03-18T00:45:58.234Z,101131.16
2018-03-18T00:48:24.040Z,101135.44
2018-03-18T00:50:49.850Z,101139.88
2018-03-18T00:53:16.550Z,101138.83
2018-03-18T00:55:42.363Z,101138.08
2018-03-18T00:58:08.179Z,101138.52
2018-03-18T01:00:33.998Z,101132.07
2018-03-18T01:02:59.841Z,101124.02
2018-03-18T01:05:25.654Z,101137.61
2018-03-18T01:07:51.467Z,101146.73
2018-03-18T01:10:17.283Z,101153.52
2018-03-18T01:12:44.074Z,101147.19
2018-03-18T01:15:09.935Z,101143.80
2018-03-18T01:17:35.757Z,101146.39
2018-03-18T01:20:01.580Z,101149.36
2018-03-18T01:22:27.401Z,101141.81
2018-03-18T01:24:53.207Z,101138.34
2018-03-18T01:27:19.023Z,101129.05
2018-03-18T01:29:44.847Z,101137.90
2018-03-18T01:32:10.654Z,101139.70
2018-03-18T01:34:36.470Z,101139.63
2018-03-18T01:37:02.283Z,101134.79
2018-03-18T01:39:28.095Z,101128.48
2018-03-18T01:41:53.946Z,101137.68
2018-03-18T01:44:19.758Z,101130.15
2018-03-18T01:46:45.608Z,101144.22
2018-03-18T01:49:11.418Z,101135.38
2018-03-18T01:51:37.233Z,101138.95
2018-03-18T01:54:03.046Z,101138.77
2018-03-18T01:56:29.760Z,101134.97
2018-03-18T01:58:55.570Z,101134.65
2018-03-18T02:01:21.386Z,101142.30
2018-03-18T02:03:47.234Z,101134.34
2018-03-18T02:06:13.052Z,101126.64
2018-03-18T02:08:39.702Z,101134.93
2018-03-18T02:11:05.550Z,101134.13
2018-03-18T02:13:32.208Z,101126.34
2018-03-18T02:15:58.050Z,101134.30
2018-03-18T02:18:23.895Z,101137.78
2018-03-18T02:20:49.700Z,101127.34
2018-03-18T02:23:15.545Z,101134.10
2018-03-18T02:25:41.350Z,101130.89
2018-03-18T02:28:07.939Z,101131.06
2018-03-18T02:30:33.758Z,101127.06
2018-03-18T02:32:59.561Z,101130.19
2018-03-18T02:35:25.368Z,101129.42
2018-03-18T02:37:51.182Z,101130.03
2018-03-18T02:40:16.995Z,101134.08
2018-03-18T02:42:42.804Z,101140.91
2018-03-18T02:45:15.708Z,101139.94
2018-03-18T02:47:41.518Z,101146.19
2018-03-18T02:50:07.332Z,101141.74
2018-03-18T02:52:33.143Z,101156.50
2018-03-18T02:54:58.954Z,101134.21
2018-03-18T02:57:24.789Z,101154.85
2018-03-18T02:59:50.603Z,101150.66
2018-03-18T03:02:16.410Z,101147.08
2018-03-18T03:04:42.232Z,101144.27
2018-03-18T03:07:08.059Z,101150.41
2018-03-18T03:09:33.884Z,101147.41
2018-03-18T03:11:59.711Z,101154.77
2018-03-18T03:14:25.602Z,101156.00
2018-03-18T03:16:52.354Z,101161.60
2018-03-18T03:19:19.250Z,101158.38
2018-03-18T03:21:45.942Z,101152.48
2018-03-18T03:24:11.752Z,101154.45
2018-03-18T03:26:37.574Z,101157.86
2018-03-18T03:29:04.280Z,101161.56
2018-03-18T03:31:31.119Z,101153.52
2018-03-18T03:33:56.929Z,101160.00
2018-03-18T03:36:22.779Z,101170.36
2018-03-18T03:38:48.590Z,101168.63
2018-03-18T03:41:14.433Z,101165.30
2018-03-18T03:43:40.254Z,101173.00
2018-03-18T03:46:06.130Z,101169.42
2018-03-18T03:48:31.947Z,101167.03
2018-03-18T03:50:57.768Z,101168.72
2018-03-18T03:53:23.584Z,101173.27
2018-03-18T03:55:49.401Z,101178.09
2018-03-18T03:58:15.254Z,101183.41
2018-03-18T04:00:41.071Z,101183.60
2018-03-18T04:03:06.938Z,101171.53
2018-03-18T04:05:32.756Z,101186.84
2018-03-18T04:07:58.610Z,101187.05
2018-03-18T04:10:24.430Z,101174.58
2018-03-18T04:12:50.253Z,101178.85
2018-03-18T04:15:16.124Z,101181.84
2018-03-18T04:17:41.938Z,101173.22
2018-03-18T04:20:07.754Z,101179.29
2018-03-18T04:22:34.563Z,101173.92
2018-03-18T04:25:00.386Z,101187.13
2018-03-18T04:27:26.203Z,101174.20
2018-03-18T04:29:52.023Z,101176.63
2018-03-18T04:32:17.842Z,101181.16
2018-03-18T04:34:43.659Z,101180.03
2018-03-18T04:37:09.475Z,101194.59
2018-03-18T04:39:36.196Z,101189.17
2018-03-18T04:42:02.981Z,101196.89
2018-03-18T04:44:29.757Z,101203.92
2018-03-18T04:46:56.494Z,101192.87
2018-03-18T04:49:22.312Z,101197.39
2018-03-18T04:51:48.128Z,101199.89
2018-03-18T04:54:15.003Z,101194.66
2018-03-18T04:56:40.859Z,101210.42
2018-03-18T04:59:06.671Z,101199.04
2018-03-18T05:01:32.522Z,101206.57
2018-03-18T05:03:59.175Z,101204.70
2018-03-18T05:06:24.990Z,101211.23
2018-03-18T05:08:50.820Z,101204.09
2018-03-18T05:11:16.655Z,101205.55
2018-03-18T05:13:42.497Z,101209.08
2018-03-18T05:16:08.362Z,101212.75
2018-03-18T05:18:34.187Z,101213.44
2018-03-18T05:21:01.018Z,101209.48
2018-03-18T05:23:26.834Z,101208.42
2018-03-18T05:25:52.690Z,101223.02
2018-03-18T05:28:18.504Z,101213.03
2018-03-18T05:30:44.361Z,101213.02
2018-03-18T05:33:10.190Z,101215.97
2018-03-18T05:35:36.961Z,101217.32
2018-03-18T05:38:02.801Z,101228.12
2018-03-18T05:40:29.507Z,101219.63
2018-03-18T05:42:55.332Z,101212.57
2018-03-18T05:45:21.162Z,101217.75
2018-03-18T05:47:46.987Z,101217.71
2018-03-18T05:50:13.640Z,101225.17
2018-03-18T05:52:40.340Z,101231.97
2018-03-18T05:55:06.161Z,101230.39
2018-03-18T05:57:32.015Z,101226.28
2018-03-18T05:59:57.881Z,101242.19
2018-03-18T06:02:24.534Z,101234.09
2018-03-18T06:04:50.348Z,101241.14
2018-03-18T06:07:17.154Z,101239.80
2018-03-18T06:09:43.962Z,101242.02
2018-03-18T06:12:10.785Z,101237.35
2018-03-18T06:14:36.611Z,101252.52
2018-03-18T06:17:03.346Z,101240.27
2018-03-18T06:19:30.107Z,101252.05
2018-03-18T06:21:56.910Z,101256.60
2018-03-18T06:24:22.723Z,101263.29
2018-03-18T06:26:48.576Z,101254.73
2018-03-18T06:29:15.211Z,101262.78
2018-03-18T06:31:41.054Z,101263.34
2018-03-18T06:34:07.915Z,101262.81
2018-03-18T06:36:33.731Z,101267.00
2018-03-18T06:38:59.547Z,101266.81
2018-03-18T06:41:25.383Z,101273.66
2018-03-18T06:43:51.197Z,101268.67
2018-03-18T06:46:17.060Z,101279.54
2018-03-18T06:48:42.890Z,101271.81
2018-03-18T06:51:08.716Z,101280.44
2018-03-18T06:53:35.479Z,101275.66
2018-03-18T06:56:02.291Z,101274.05
2018-03-18T06:58:28.131Z,101285.00
2018-03-18T07:00:53.944Z,101281.09
2018-03-18T07:03:20.623Z,101279.91
2018-03-18T07:05:46.457Z,101298.30
2018-03-18T07:08:12.273Z,101295.93
2018-03-18T07:10:38.107Z,101288.48
2018-03-18T07:13:04.006Z,101292.23
2018-03-18T07:15:29.872Z,101290.16
2018-03-18T07:17:55.695Z,101296.55
2018-03-18T07:20:21.512Z,101291.86
2018-03-18T07:22:47.325Z,101290.77
2018-03-18T07:25:13.162Z,101295.64
2018-03-18T07:27:38.968Z,101291.63
2018-03-18T07:30:04.787Z,101298.87
2018-03-18T07:32:31.443Z,101314.69
2018-03-18T07:34:57.265Z,101297.19
2018-03-18T07:37:23.110Z,101300.46
2018-03-18T07:39:48.942Z,101311.23
2018-03-18T07:42:14.762Z,101306.05
2018-03-18T07:44:40.584Z,101300.28
2018-03-18T07:47:06.449Z,101305.20
2018-03-18T07:49:32.307Z,101302.89
2018-03-18T07:51:58.171Z,101307.77
2018-03-18T07:54:24.903Z,101293.44
2018-03-18T07:56:50.707Z,101299.00
2018-03-18T07:59:16.524Z,101311.75
2018-03-18T08:01:42.388Z,101314.47
2018-03-18T08:04:09.075Z,101310.86
2018-03-18T08:06:34.899Z,101306.80
2018-03-18T08:09:01.718Z,101312.87
2018-03-18T08:11:28.391Z,101307.77
2018-03-18T08:13:54.202Z,101290.22
2018-03-18T08:16:21.010Z,101301.83
2018-03-18T08:18:47.650Z,101312.36
2018-03-18T08:21:13.516Z,101318.95
2018-03-18T08:23:39.333Z,101307.48
2018-03-18T08:26:05.199Z,101313.00
2018-03-18T08:28:31.067Z,101325.56
2018-03-18T08:30:57.803Z,101327.67
2018-03-18T08:33:24.518Z,101323.11
2018-03-18T08:35:50.366Z,101319.71
2018-03-18T08:38:16.190Z,101321.06
2018-03-18T08:40:42.123Z,101319.38
2018-03-18T08:43:07.948Z,101319.86
2018-03-18T08:45:34.558Z,101323.38
2018-03-18T08:48:00.374Z,101324.20
2018-03-18T08:50:26.279Z,101316.98
2018-03-18T08:52:52.106Z,101323.50
2018-03-18T08:55:18.825Z,101317.88
2018-03-18T08:57:44.644Z,101305.61
2018-03-18T09:00:10.512Z,101313.42
2018-03-18T09:02:36.357Z,101318.19
2018-03-18T09:05:02.167Z,101305.88
2018-03-18T09:07:28.060Z,101302.36
2018-03-18T09:09:54.899Z,101309.73
2018-03-18T09:12:20.946Z,101301.17
2018-03-18T09:14:46.767Z,101308.19
2018-03-18T09:17:12.582Z,101291.98
2018-03-18T09:19:38.404Z,101307.44
2018-03-18T09:22:05.177Z,101305.67
2018-03-18T09:24:31.965Z,101297.85
2018-03-18T09:26:57.782Z,101280.13
2018-03-18T09:29:23.604Z,101295.55
2018-03-18T09:31:49.468Z,101295.09
2018-03-18T09:34:15.295Z,101291.00
2018-03-18T09:36:42.015Z,101294.47
2018-03-18T09:39:07.866Z,101297.98
2018-03-18T09:41:33.689Z,101290.11
2018-03-18T09:43:59.506Z,101290.58
2018-03-18T09:46:25.389Z,101282.62
2018-03-18T09:48:51.255Z,101293.02
2018-03-18T09:51:17.110Z,101294.00
2018-03-18T09:53:42.922Z,101284.44
2018-03-18T09:56:08.779Z,101283.72
2018-03-18T09:58:34.605Z,101274.70
2018-03-18T10:01:00.433Z,101280.85
2018-03-18T10:03:26.284Z,101275.48
2018-03-18T10:05:52.105Z,101293.16
2018-03-18T10:08:18.820Z,101279.13
2018-03-18T10:10:44.638Z,101279.67
2018-03-18T10:13:10.454Z,101279.94
2018-03-18T10:15:36.271Z,101277.37
2018-03-18T10:18:02.091Z,101288.31
2018-03-18T10:20:27.986Z,101275.02
2018-03-18T10:22:54.009Z,101275.38
2018-03-18T10:25:20.740Z,101258.13
2018-03-18T10:27:46.563Z,101276.33
2018-03-18T10:30:12.388Z,101271.22
2018-03-18T10:32:38.248Z,101265.89
2018-03-18T10:35:04.075Z,101261.95
2018-03-18T10:37:29.894Z,101272.98
2018-03-18T10:39:55.790Z,101272.81
2018-03-18T10:42:21.609Z,101265.63
2018-03-18T10:44:47.454Z,101267.71
2018-03-18T10:47:13.363Z,101268.59
2018-03-18T10:49:39.158Z,101261.27
2018-03-18T10:52:05.033Z,101267.51
2018-03-18T10:54:31.778Z,101264.88
2018-03-18T10:56:58.410Z,101267.04
2018-03-18T10:59:25.165Z,101264.17
2018-03-18T11:01:55.763Z,101251.63
2018-03-18T11:04:21.614Z,101248.42
2018-03-18T11:06:47.461Z,101252.59
2018-03-18T11:09:20.278Z,101253.24
2018-03-18T11:11:46.092Z,101257.30
2018-03-18T11:14:13.054Z,101262.92
2018-03-18T11:16:38.895Z,101251.27
2018-03-18T11:19:04.745Z,101249.98
2018-03-18T11:21:30.616Z,101245.94
2018-03-18T11:23:56.490Z,101239.20
2018-03-18T11:26:22.344Z,101234.48
2018-03-18T11:28:48.165Z,101232.12
2018-03-18T11:31:28.882Z,101236.67
2018-03-18T11:33:54.821Z,101225.55
2018-03-18T11:36:20.683Z,101225.55
2018-03-18T11:38:46.534Z,101231.15
2018-03-18T11:41:12.363Z,101225.29
2018-03-18T11:43:38.292Z,101232.30
2018-03-18T11:46:04.143Z,101216.59
2018-03-18T11:48:30.138Z,101211.63
2018-03-18T11:50:55.963Z,101224.58
2018-03-18T11:53:22.562Z,101225.63
2018-03-18T11:55:49.329Z,101221.77
2018-03-18T11:58:15.172Z,101222.11
2018-03-18T12:00:41.039Z,101219.33
2018-03-18T12:03:06.883Z,101209.43
2018-03-18T12:05:32.738Z,101215.69
2018-03-18T12:07:58.555Z,101214.05
2018-03-18T12:10:24.403Z,101212.94
2018-03-18T12:12:50.206Z,101212.30
2018-03-18T12:15:16.023Z,101225.78
2018-03-18T12:17:41.839Z,101211.85
2018-03-18T12:20:08.646Z,101201.30
2018-03-18T12:22:34.467Z,101201.58
2018-03-18T12:25:00.323Z,101206.87
2018-03-18T12:27:26.137Z,101192.05
2018-03-18T12:29:51.955Z,101194.17
2018-03-18T12:32:17.763Z,101204.91
2018-03-18T12:34:43.636Z,101189.14
2018-03-18T12:37:09.464Z,101201.42
2018-03-18T12:39:41.424Z,101188.27
2018-03-18T12:42:07.246Z,101169.88
2018-03-18T12:44:33.204Z,101187.54
2018-03-18T12:46:59.016Z,101185.76
2018-03-18T12:49:24.867Z,101189.31
2018-03-18T12:51:50.683Z,101180.13
2018-03-18T12:54:17.341Z,101179.63
2018-03-18T12:56:43.983Z,101192.25
2018-03-18T12:59:09.803Z,101182.66
2018-03-18T13:01:35.614Z,101166.70
2018-03-18T13:04:01.425Z,101179.92
2018-03-18T13:06:27.238Z,101176.14
2018-03-18T13:08:53.046Z,101169.41
2018-03-18T13:11:19.715Z,101165.52
2018-03-18T13:13:46.358Z,101171.36
2018-03-18T13:16:12.351Z,101172.13
2018-03-18T13:18:38.165Z,101163.80
2018-03-18T13:21:04.063Z,101158.86
2018-03-18T13:23:29.850Z,101167.05
2018-03-18T13:25:55.664Z,101173.00
2018-03-18T13:28:21.487Z,101171.78
2018-03-18T13:30:47.330Z,101155.96
2018-03-18T13:33:13.146Z,101165.73
2018-03-18T13:35:38.950Z,101161.94
2018-03-18T13:38:05.556Z,101162.69
2018-03-18T13:40:31.411Z,101172.67
2018-03-18T13:42:57.406Z,101171.39
2018-03-18T13:45:23.217Z,101164.47
2018-03-18T13:47:49.050Z,101154.28
2018-03-18T13:50:14.862Z,101151.49
2018-03-18T13:52:40.674Z,101144.09
2018-03-18T13:55:06.511Z,101139.20
2018-03-18T13:57:33.207Z,101155.02
2018-03-18T13:59:59.011Z,101148.98
2018-03-18T14:02:25.674Z,101147.14
2018-03-18T14:04:51.522Z,101152.89
2018-03-18T14:07:25.198Z,101140.09
2018-03-18T14:09:51.046Z,101154.36
2018-03-18T14:12:16.867Z,101149.13
2018-03-18T14:14:42.672Z,101148.48
2018-03-18T14:17:08.482Z,101145.08
2018-03-18T14:19:34.540Z,101139.55
2018-03-18T14:22:00.362Z,101144.09
2018-03-18T14:24:26.175Z,101145.84
2018-03-18T14:26:51.983Z,101139.58
2018-03-18T14:29:17.910Z,101144.83
2018-03-18T14:31:43.737Z,101136.02
2018-03-18T14:34:09.563Z,101135.73
2018-03-18T14:36:35.403Z,101137.09
2018-03-18T14:39:01.234Z,101132.69
2018-03-18T14:41:27.059Z,101125.75
2018-03-18T14:43:52.927Z,101128.76
2018-03-18T14:46:18.773Z,101126.55
2018-03-18T14:48:45.611Z,101139.16
2018-03-18T14:51:11.422Z,101129.80
2018-03-18T14:53:37.275Z,101124.44
2018-03-18T14:56:03.183Z,101130.10
2018-03-18T14:58:31.125Z,101132.64
2018-03-18T15:00:59.812Z,101129.13
2018-03-18T15:03:25.827Z,101130.07
2018-03-18T15:05:52.178Z,101129.27
2018-03-18T15:08:18.210Z,101126.54
2018-03-18T15:10:44.068Z,101131.82
2018-03-18T15:13:09.883Z,101130.28
2018-03-18T15:15:36.650Z,101122.20
2018-03-18T15:18:02.958Z,101128.28
2018-03-18T15:20:28.774Z,101121.66
2018-03-18T15:22:54.579Z,101113.11
2018-03-18T15:25:21.307Z,101119.75
2018-03-18T15:27:47.989Z,101122.63
2018-03-18T15:30:14.770Z,101111.32
2018-03-18T15:32:40.625Z,101129.39
2018-03-18T15:35:06.444Z,101108.86
2018-03-18T15:37:32.289Z,101116.10
2018-03-18T15:39:58.103Z,101113.85
2018-03-18T15:42:23.944Z,101107.17
2018-03-18T15:44:49.751Z,101113.02
2018-03-18T15:47:15.594Z,101116.83
2018-03-18T15:49:41.522Z,101107.59
2018-03-18T15:52:07.377Z,101116.20
2018-03-18T15:54:33.187Z,101116.53
2018-03-18T15:56:59.851Z,101115.66
2018-03-18T15:59:25.699Z,101120.47
2018-03-18T16:01:51.506Z,101118.59
2018-03-18T16:04:17.312Z,101112.81
2018-03-18T16:06:43.919Z,101119.73
2018-03-18T16:09:09.767Z,101104.93
2018-03-18T16:11:35.609Z,101112.03
2018-03-18T16:14:01.415Z,101112.44
2018-03-18T16:16:27.254Z,101117.69
2018-03-18T16:18:53.067Z,101111.17
2018-03-18T16:21:18.926Z,101110.62
2018-03-18T16:23:45.671Z,101114.65
2018-03-18T16:26:11.479Z,101114.23
2018-03-18T16:28:38.071Z,101112.07
2018-03-18T16:31:11.896Z,101114.59
2018-03-18T16:33:37.858Z,101127.02
2018-03-18T16:36:03.768Z,101119.22
2018-03-18T16:38:29.679Z,101122.52
2018-03-18T16:40:56.440Z,101120.67
2018-03-18T16:43:23.067Z,101121.53
2018-03-18T16:45:48.886Z,101125.94
2018-03-18T16:48:14.698Z,101129.98
2018-03-18T16:50:40.505Z,101132.94
2018-03-18T16:53:06.314Z,101120.72
2018-03-18T16:55:32.998Z,101118.42
2018-03-18T16:57:59.686Z,101127.94
2018-03-18T17:00:26.330Z,101124.94
2018-03-18T17:02:52.295Z,101126.97
2018-03-18T17:05:18.133Z,101127.27
2018-03-18T17:07:44.002Z,101140.84
2018-03-18T17:10:09.866Z,101138.64
2018-03-18T17:12:35.691Z,101146.94
2018-03-18T17:15:01.553Z,101150.89
2018-03-18T17:17:27.641Z,101157.11
2018-03-18T17:19:53.480Z,101152.81
2018-03-18T17:22:19.310Z,101153.18
2018-03-18T17:24:45.139Z,101164.09
2018-03-18T17:27:11.859Z,101169.44
2018-03-18T17:29:37.704Z,101165.31
2018-03-18T17:32:03.532Z,101174.63
2018-03-18T17:34:29.360Z,101181.69
2018-03-18T17:36:55.197Z,101183.99
2018-03-18T17:39:21.039Z,101184.20
2018-03-18T17:41:46.866Z,101182.16
2018-03-18T17:44:18.852Z,101184.70
2018-03-18T17:46:50.972Z,101188.82
2018-03-18T17:49:23.015Z,101198.64
2018-03-18T17:51:55.064Z,101192.92
2018-03-18T17:54:27.146Z,101195.42
2018-03-18T17:56:53.002Z,101197.63
2018-03-18T17:59:18.840Z,101197.49
2018-03-18T18:01:44.672Z,101205.21
2018-03-18T18:04:10.486Z,101194.88
2018-03-18T18:06:36.291Z,101200.08
2018-03-18T18:09:02.126Z,101202.97
2018-03-18T18:11:27.945Z,101204.86
2018-03-18T18:13:55.606Z,101211.33
2018-03-18T18:16:21.432Z,101206.71
2018-03-18T18:18:47.259Z,101211.73
2018-03-18T18:21:13.231Z,101212.67
2018-03-18T18:23:39.063Z,101218.60
2018-03-18T18:26:04.877Z,101215.19
2018-03-18T18:28:30.743Z,101216.56
2018-03-18T18:30:56.568Z,101219.81
2018-03-18T18:33:22.395Z,101231.95
2018-03-18T18:35:48.233Z,101227.77
2018-03-18T18:38:14.059Z,101228.93
2018-03-18T18:40:39.945Z,101232.34
2018-03-18T18:43:05.946Z,101226.75
2018-03-18T18:45:31.804Z,101236.25
2018-03-18T18:47:57.735Z,101242.94
2018-03-18T18:50:23.748Z,101239.66
2018-03-18T18:52:49.695Z,101250.58
2018-03-18T18:55:15.620Z,101252.91
2018-03-18T18:57:41.567Z,101250.72
2018-03-18T19:00:07.634Z,101249.86
2018-03-18T19:02:33.806Z,101260.44
2018-03-18T19:05:00.411Z,101264.05
2018-03-18T19:07:26.687Z,101262.22
2018-03-18T19:09:52.886Z,101263.36
2018-03-18T19:12:18.853Z,101265.80
2018-03-18T19:14:44.763Z,101269.59
2018-03-18T19:17:10.697Z,101270.41
2018-03-18T19:19:36.605Z,101276.58
2018-03-18T19:22:02.450Z,101274.42
2018-03-18T19:24:28.382Z,101276.53
2018-03-18T19:26:54.243Z,101274.91
2018-03-18T19:29:21.142Z,101277.20
2018-03-18T19:31:47.927Z,101282.60
2018-03-18T19:34:13.859Z,101283.10
2018-03-18T19:36:39.788Z,101276.36
2018-03-18T19:39:05.875Z,101280.96
2018-03-18T19:41:31.768Z,101283.80
2018-03-18T19:43:57.650Z,101291.05
2018-03-18T19:46:25.339Z,101287.65
2018-03-18T19:48:52.070Z,101288.37
2018-03-18T19:51:17.936Z,101290.56
2018-03-18T19:53:43.816Z,101295.08
2018-03-18T19:56:09.690Z,101291.61
2018-03-18T19:58:35.580Z,101294.14
2018-03-18T20:01:01.406Z,101284.70
2018-03-18T20:03:27.233Z,101290.63
2018-03-18T20:05:53.106Z,101296.31
2018-03-18T20:08:18.983Z,101290.66
2018-03-18T20:10:44.855Z,101297.78
2018-03-18T20:13:10.854Z,101288.80
2018-03-18T20:15:36.867Z,101299.51
2018-03-18T20:18:02.702Z,101295.50
2018-03-18T20:20:28.539Z,101290.83
2018-03-18T20:25:45.752Z,101290.02
2018-03-18T20:28:11.585Z,101290.28
2018-03-18T20:30:37.418Z,101287.99
2018-03-18T20:33:04.075Z,101290.61
2018-03-18T20:35:30.903Z,101295.03
2018-03-18T20:37:56.864Z,101293.17
2018-03-18T20:40:22.678Z,101293.92
2018-03-18T20:42:48.634Z,101292.04
2018-03-18T20:45:14.460Z,101289.46
2018-03-18T20:47:40.459Z,101290.11
2018-03-18T20:50:06.309Z,101293.84
2018-03-18T20:52:32.232Z,101287.34
2018-03-18T20:54:58.074Z,101289.58
2018-03-18T20:57:23.883Z,101287.68
2018-03-18T20:59:50.060Z,101289.01
2018-03-18T21:02:15.874Z,101287.34
2018-03-18T21:04:41.766Z,101283.36
2018-03-18T21:07:07.943Z,101282.69
2018-03-18T21:09:35.403Z,101287.63
2018-03-18T21:12:01.376Z,101284.30
2018-03-18T21:14:27.312Z,101292.29
2018-03-18T21:16:53.154Z,101294.39
2018-03-18T21:19:19.258Z,101290.48
2018-03-18T21:21:45.122Z,101281.88
2018-03-18T21:24:10.980Z,101285.13
2018-03-18T21:26:36.789Z,101292.14
2018-03-18T21:29:02.684Z,101290.63
2018-03-18T21:31:28.499Z,101286.70
2018-03-18T21:33:54.315Z,101282.98
2018-03-18T21:36:20.363Z,101282.58
2018-03-18T21:38:46.181Z,101288.22
2018-03-18T21:41:11.991Z,101283.14
2018-03-18T21:43:39.214Z,101281.14
2018-03-18T21:46:05.022Z,101284.55
2018-03-18T21:48:30.830Z,101284.48
2018-03-18T21:50:56.655Z,101288.61
2018-03-18T21:53:22.666Z,101290.47
2018-03-18T21:55:48.519Z,101282.94
2018-03-18T21:58:14.362Z,101278.25
2018-03-18T22:00:41.190Z,101280.20
2018-03-18T22:03:07.056Z,101281.58
2018-03-18T22:05:32.891Z,101285.87
2018-03-18T22:07:59.660Z,101280.89
2018-03-18T22:10:25.470Z,101281.02
2018-03-18T22:12:51.283Z,101280.55
2018-03-18T22:15:17.086Z,101281.64
2018-03-18T22:17:42.890Z,101278.59
2018-03-18T22:20:08.694Z,101281.44
2018-03-18T22:22:34.501Z,101273.05
2018-03-18T22:25:00.347Z,101275.06
2018-03-18T22:27:26.227Z,101275.56
2018-03-18T22:29:52.063Z,101276.95
2018-03-18T22:32:17.865Z,101271.47
2018-03-18T22:34:43.661Z,101272.95
2018-03-18T22:37:09.474Z,101271.67
2018-03-18T22:39:35.278Z,101268.70
2018-03-18T22:42:01.120Z,101262.92
2018-03-18T22:44:26.930Z,101267.13
2018-03-18T22:46:52.739Z,101265.14
2018-03-18T22:49:18.546Z,101264.91
2018-03-18T22:51:44.469Z,101263.39
2018-03-18T22:54:10.274Z,101270.92
2018-03-18T22:56:36.079Z,101271.47
2018-03-18T22:59:01.883Z,101270.05
2018-03-18T23:01:27.691Z,101268.20
2018-03-18T23:03:53.496Z,101267.09
2018-03-18T23:06:19.301Z,101272.42
2018-03-18T23:08:45.123Z,101269.73
2018-03-18T23:11:10.966Z,101266.72
2018-03-18T23:13:36.783Z,101269.58
2018-03-18T23:16:02.611Z,101269.84
2018-03-18T23:18:28.427Z,101261.00
2018-03-18T23:20:54.234Z,101263.66
2018-03-18T23:23:20.078Z,101258.14
2018-03-18T23:25:46.882Z,101259.33
2018-03-18T23:28:12.855Z,101255.14
2018-03-18T23:30:39.488Z,101253.17
2018-03-18T23:33:05.387Z,101250.97
2018-03-18T23:35:31.243Z,101243.47
2018-03-18T23:37:57.070Z,101247.05
2018-03-18T23:40:22.892Z,101249.99
2018-03-18T23:42:48.742Z,101253.77
2018-03-18T23:45:14.580Z,101250.51
2018-03-18T23:47:40.396Z,101245.39
2018-03-18T23:50:06.206Z,101242.03
2018-03-18T23:52:32.007Z,101234.63
2018-03-18T23:54:58.670Z,101241.77
2018-03-18T23:57:24.690Z,101244.48
2018-03-18T23:59:50.499Z,101247.19
